createdAt,value
2023-01-22T00:01:52.400Z,21.98
2023-01-22T00:04:20.662Z,23.00
2023-01-22T00:06:49.006Z,21.75
2023-01-22T00:09:17.274Z,21.75
2023-01-22T00:11:45.528Z,22.15
2023-01-22T00:14:13.836Z,22.48
2023-01-22T00:16:43.650Z,20.88
2023-01-22T00:19:12.233Z,19.20
2023-01-22T00:21:40.577Z,22.15
2023-01-22T00:24:09.914Z,19.00
2023-01-22T00:26:39.059Z,21.77
2023-01-22T00:29:07.454Z,23.35
2023-01-22T00:31:35.804Z,22.30
2023-01-22T00:34:05.678Z,21.83
2023-01-22T00:36:34.099Z,20.35
2023-01-22T00:39:02.781Z,21.30
2023-01-22T00:41:31.129Z,22.85
2023-01-22T00:44:02.783Z,21.50
2023-01-22T00:46:31.076Z,23.50
2023-01-22T00:48:59.719Z,22.02
2023-01-22T00:51:29.377Z,21.95
2023-01-22T00:53:57.808Z,22.10
2023-01-22T00:56:26.182Z,20.92
2023-01-22T00:58:54.546Z,21.40
2023-01-22T01:01:22.887Z,21.50
2023-01-22T01:03:51.125Z,20.08
2023-01-22T01:06:22.101Z,20.63
2023-01-22T01:08:52.092Z,21.02
2023-01-22T01:11:23.195Z,19.80
2023-01-22T01:13:52.444Z,21.45
2023-01-22T01:16:24.538Z,21.15
2023-01-22T01:18:53.074Z,19.83
2023-01-22T01:21:21.431Z,22.95
2023-01-22T01:23:51.084Z,22.13
2023-01-22T01:26:19.507Z,24.52
2023-01-22T01:28:47.836Z,22.27
2023-01-22T01:31:18.103Z,23.48
2023-01-22T01:33:47.203Z,22.17
2023-01-22T01:36:19.731Z,23.60
2023-01-22T01:38:57.946Z,23.35
2023-01-22T01:41:27.978Z,24.63
2023-01-22T01:44:11.948Z,22.40
2023-01-22T01:46:46.196Z,22.95
2023-01-22T01:49:26.838Z,21.85
2023-01-22T01:51:59.360Z,22.70
2023-01-22T01:54:30.303Z,21.92
2023-01-22T01:57:05.536Z,21.25
2023-01-22T01:59:34.285Z,19.33
2023-01-22T02:02:05.315Z,20.52
2023-01-22T02:04:34.087Z,20.23
2023-01-22T02:07:02.760Z,18.45
2023-01-22T02:09:33.126Z,19.20
2023-01-22T02:12:01.984Z,19.10
2023-01-22T02:14:34.607Z,19.27
2023-01-22T02:17:04.083Z,19.98
2023-01-22T02:19:32.325Z,19.85
2023-01-22T02:22:02.476Z,18.83
2023-01-22T02:24:32.060Z,18.42
2023-01-22T02:27:00.323Z,17.70
2023-01-22T02:29:29.153Z,17.42
2023-01-22T02:31:57.572Z,17.65
2023-01-22T02:34:26.041Z,17.35
2023-01-22T02:36:55.194Z,17.55
2023-01-22T02:39:24.934Z,18.60
2023-01-22T02:41:53.360Z,17.13
2023-01-22T02:44:21.666Z,15.55
2023-01-22T02:46:49.968Z,18.30
2023-01-22T02:49:18.624Z,17.55
2023-01-22T02:51:46.969Z,16.73
2023-01-22T02:54:15.317Z,16.88
2023-01-22T02:56:45.052Z,18.55
2023-01-22T02:59:13.335Z,18.10
2023-01-22T03:01:41.600Z,18.45
2023-01-22T03:04:11.792Z,17.80
2023-01-22T03:06:42.257Z,18.02
2023-01-22T03:09:12.278Z,17.88
2023-01-22T03:11:44.726Z,17.17
2023-01-22T03:14:31.201Z,17.60
2023-01-22T03:17:17.673Z,16.00
2023-01-22T03:20:03.832Z,16.85
2023-01-22T03:22:32.194Z,15.45
2023-01-22T03:25:01.482Z,17.65
2023-01-22T03:27:33.122Z,17.02
2023-01-22T03:30:01.458Z,17.30
2023-01-22T03:32:29.764Z,17.60
2023-01-22T03:34:58.098Z,16.45
2023-01-22T03:37:26.384Z,16.88
2023-01-22T03:39:54.791Z,16.92
2023-01-22T03:42:25.643Z,16.25
2023-01-22T03:44:55.475Z,17.15
2023-01-22T03:47:23.768Z,16.20
2023-01-22T03:49:52.115Z,16.17
2023-01-22T03:52:20.477Z,15.48
2023-01-22T03:54:48.913Z,15.25
2023-01-22T03:57:17.194Z,14.60
2023-01-22T03:59:45.768Z,14.40
2023-01-22T04:02:15.550Z,15.60
2023-01-22T04:04:47.774Z,14.32
2023-01-22T04:07:16.082Z,13.95
2023-01-22T04:09:44.567Z,14.27
2023-01-22T04:12:12.899Z,14.43
2023-01-22T04:14:41.130Z,13.77
2023-01-22T04:17:09.471Z,13.02
2023-01-22T04:19:39.199Z,13.80
2023-01-22T04:22:07.511Z,14.38
2023-01-22T04:24:36.407Z,12.93
2023-01-22T04:27:04.879Z,13.77
2023-01-22T04:29:33.102Z,13.90
2023-01-22T04:32:01.372Z,13.73
2023-01-22T04:34:29.633Z,13.27
2023-01-22T04:36:59.263Z,13.35
2023-01-22T04:39:27.528Z,14.55
2023-01-22T04:41:55.811Z,13.32
2023-01-22T04:44:24.093Z,14.30
2023-01-22T04:46:52.396Z,12.80
2023-01-22T04:49:20.691Z,12.63
2023-01-22T04:51:48.997Z,13.05
2023-01-22T04:54:19.026Z,12.60
2023-01-22T04:56:47.317Z,13.30
2023-01-22T04:59:15.575Z,14.23
2023-01-22T05:01:44.416Z,14.70
2023-01-22T05:04:12.709Z,13.40
2023-01-22T05:06:40.949Z,13.55
2023-01-22T05:09:09.400Z,13.93
2023-01-22T05:11:39.191Z,14.15
2023-01-22T05:14:09.260Z,13.40
2023-01-22T05:16:38.779Z,13.77
2023-01-22T05:19:07.196Z,13.73
2023-01-22T05:21:35.547Z,13.45
2023-01-22T05:24:03.864Z,14.07
2023-01-22T05:26:32.111Z,15.02
2023-01-22T05:29:01.752Z,14.18
2023-01-22T05:31:30.100Z,14.63
2023-01-22T05:33:58.402Z,14.65
2023-01-22T05:36:26.777Z,13.55
2023-01-22T05:38:55.496Z,13.10
2023-01-22T05:41:23.978Z,13.63
2023-01-22T05:43:52.295Z,13.77
2023-01-22T05:46:22.284Z,13.13
2023-01-22T05:48:50.553Z,12.63
2023-01-22T05:51:19.394Z,13.75
2023-01-22T05:53:47.770Z,12.55
2023-01-22T05:56:16.141Z,12.90
2023-01-22T05:58:44.565Z,12.60
2023-01-22T06:01:13.368Z,12.82
2023-01-22T06:03:43.529Z,12.45
2023-01-22T06:06:14.444Z,12.52
2023-01-22T06:08:42.857Z,12.13
2023-01-22T06:11:13.558Z,12.38
2023-01-22T06:13:42.035Z,11.20
2023-01-22T06:16:11.247Z,11.27
2023-01-22T06:18:39.830Z,12.13
2023-01-22T06:21:10.515Z,10.18
2023-01-22T06:23:39.297Z,11.88
2023-01-22T06:26:07.629Z,12.23
2023-01-22T06:28:35.952Z,12.25
2023-01-22T06:31:07.686Z,11.68
2023-01-22T06:33:37.984Z,10.65
2023-01-22T06:36:09.060Z,10.98
2023-01-22T06:38:38.464Z,11.65
2023-01-22T06:41:07.053Z,10.77
2023-01-22T06:43:36.783Z,11.68
2023-01-22T06:46:05.719Z,11.50
2023-01-22T06:48:34.182Z,11.00
2023-01-22T06:51:02.643Z,10.45
2023-01-22T06:53:32.325Z,11.77
2023-01-22T06:56:00.838Z,11.65
2023-01-22T06:58:29.383Z,12.40
2023-01-22T07:01:01.996Z,12.02
2023-01-22T07:03:30.419Z,11.23
2023-01-22T07:06:00.477Z,11.57
2023-01-22T07:08:31.748Z,11.23
2023-01-22T07:11:01.979Z,11.35
2023-01-22T07:13:30.649Z,11.38
2023-01-22T07:16:03.054Z,10.32
2023-01-22T07:18:31.700Z,10.77
2023-01-22T07:21:02.288Z,10.85
2023-01-22T07:23:32.473Z,10.65
2023-01-22T07:26:00.723Z,10.85
2023-01-22T07:28:29.142Z,9.82
2023-01-22T07:30:57.814Z,11.50
2023-01-22T07:33:26.182Z,12.15
2023-01-22T07:35:57.843Z,10.82
2023-01-22T07:38:29.255Z,10.73
2023-01-22T07:41:04.347Z,10.68
2023-01-22T07:43:34.373Z,10.07
2023-01-22T07:46:03.831Z,10.20
2023-01-22T07:48:32.383Z,9.90
2023-01-22T07:51:01.993Z,9.68
2023-01-22T07:53:30.871Z,9.52
2023-01-22T07:55:59.443Z,9.85
2023-01-22T07:58:29.602Z,8.98
2023-01-22T08:00:58.009Z,9.52
2023-01-22T08:03:26.632Z,9.13
2023-01-22T08:05:56.934Z,9.60
2023-01-22T08:08:25.630Z,9.88
2023-01-22T08:10:53.876Z,10.02
2023-01-22T08:13:22.146Z,10.15
2023-01-22T08:15:51.734Z,9.98
2023-01-22T08:18:22.856Z,9.82
2023-01-22T08:20:52.050Z,10.18
2023-01-22T08:23:21.999Z,9.52
2023-01-22T08:25:55.044Z,10.18
2023-01-22T08:28:23.381Z,9.43
2023-01-22T08:31:07.800Z,9.98
2023-01-22T08:33:37.917Z,9.25
2023-01-22T08:36:09.681Z,10.00
2023-01-22T08:38:38.365Z,9.63
2023-01-22T08:41:10.949Z,9.98
2023-01-22T08:43:41.688Z,10.18
2023-01-22T08:46:15.177Z,9.70
2023-01-22T08:48:44.288Z,9.70
2023-01-22T08:51:13.395Z,10.38
2023-01-22T08:53:44.018Z,10.10
2023-01-22T08:56:14.919Z,10.45
2023-01-22T08:58:45.066Z,10.93
2023-01-22T09:01:19.820Z,9.75
2023-01-22T09:03:48.794Z,9.93
2023-01-22T09:06:17.107Z,9.75
2023-01-22T09:08:45.533Z,9.35
2023-01-22T09:11:13.811Z,9.52
2023-01-22T09:13:48.314Z,9.80
2023-01-22T09:16:18.021Z,9.98
2023-01-22T09:18:46.338Z,8.80
2023-01-22T09:21:14.570Z,9.68
2023-01-22T09:23:42.902Z,10.02
2023-01-22T09:26:11.249Z,9.77
2023-01-22T09:28:39.911Z,9.60
2023-01-22T09:31:08.236Z,10.48
2023-01-22T09:33:38.071Z,10.52
2023-01-22T09:36:11.572Z,10.23
2023-01-22T09:38:40.124Z,10.13
2023-01-22T09:41:17.833Z,10.55
2023-01-22T09:43:52.887Z,11.35
2023-01-22T09:46:29.946Z,10.32
2023-01-22T09:49:09.310Z,10.05
2023-01-22T09:51:38.018Z,10.52
2023-01-22T09:54:08.836Z,10.25
2023-01-22T09:56:43.112Z,10.07
2023-01-22T09:59:18.576Z,11.30
2023-01-22T10:01:51.419Z,10.40
2023-01-22T10:04:34.630Z,11.15
2023-01-22T10:07:06.797Z,11.07
2023-01-22T10:09:35.877Z,10.95
2023-01-22T10:12:14.051Z,10.80
2023-01-22T10:14:44.169Z,11.38
2023-01-22T10:17:21.647Z,13.07
2023-01-22T10:19:55.671Z,11.65
2023-01-22T10:22:27.258Z,12.57
2023-01-22T10:24:57.529Z,12.52
2023-01-22T10:27:36.872Z,12.48
2023-01-22T10:30:19.535Z,11.93
2023-01-22T10:33:00.759Z,12.23
2023-01-22T10:41:01.114Z,11.25
2023-01-22T10:43:35.845Z,10.43
2023-01-22T10:46:20.920Z,10.20
2023-01-22T10:49:01.262Z,10.30
2023-01-22T10:51:33.918Z,9.80
2023-01-22T10:54:03.418Z,11.32
2023-01-22T10:56:35.390Z,9.90
2023-01-22T10:59:23.422Z,9.43
2023-01-22T11:02:00.117Z,8.77
2023-01-22T11:04:36.210Z,9.45
2023-01-22T11:07:10.596Z,9.85
2023-01-22T11:09:43.845Z,8.77
2023-01-22T11:12:21.064Z,9.63
2023-01-22T11:15:04.519Z,9.95
2023-01-22T11:17:44.527Z,10.18
2023-01-22T11:20:23.649Z,9.65
2023-01-22T11:23:07.410Z,9.13
2023-01-22T11:25:48.702Z,10.15
2023-01-22T11:28:41.916Z,8.93
2023-01-22T11:31:40.290Z,10.23
2023-01-22T16:14:15.607Z,12.00
2023-01-22T16:16:45.762Z,12.07
2023-01-22T16:19:14.740Z,11.88
2023-01-22T16:21:47.749Z,12.65
2023-01-22T16:24:17.790Z,12.65
2023-01-22T16:26:47.112Z,13.55
2023-01-22T16:29:17.634Z,12.88
2023-01-22T16:31:51.773Z,14.02
2023-01-22T16:34:22.957Z,13.65
2023-01-22T16:36:51.711Z,13.55
2023-01-22T16:39:23.414Z,14.73
2023-01-22T16:41:53.998Z,14.80
2023-01-22T17:29:42.752Z,17.10
2023-01-22T17:32:12.191Z,15.90
2023-01-22T17:34:44.113Z,16.00
2023-01-22T17:37:13.811Z,15.43
2023-01-22T17:39:43.565Z,15.60
2023-01-22T17:42:15.965Z,17.10
2023-01-22T17:44:46.908Z,17.75
2023-01-22T17:47:15.699Z,18.13
2023-01-22T17:49:44.453Z,15.57
2023-01-22T17:52:13.104Z,14.98
2023-01-22T17:54:42.319Z,15.00
2023-01-22T19:20:15.082Z,20.38
2023-01-22T19:25:26.301Z,19.08
2023-01-22T19:27:56.477Z,18.30
2023-01-22T19:30:25.746Z,18.85
2023-01-22T19:32:55.944Z,18.73
2023-01-22T19:35:26.481Z,18.80
2023-01-22T19:37:55.767Z,18.17
2023-01-22T19:40:24.821Z,19.05
2023-01-22T23:42:57.384Z,16.10
2023-01-22T23:45:27.895Z,17.40
2023-01-22T23:47:57.700Z,15.38
2023-01-22T23:50:26.739Z,18.25
2023-01-22T23:52:55.819Z,17.95
2023-01-22T23:55:24.671Z,16.40
2023-01-22T23:57:54.509Z,18.40
